createdAt,value
2022-08-29T00:00:09.829Z,18.80
2022-08-29T00:02:50.578Z,18.85
2022-08-29T00:05:24.971Z,18.84
2022-08-29T00:07:53.549Z,18.78
2022-08-29T00:10:22.610Z,18.67
2022-08-29T00:12:51.295Z,18.68
2022-08-29T00:15:19.895Z,18.55
2022-08-29T00:17:50.613Z,18.53
2022-08-29T00:20:29.094Z,18.47
2022-08-29T00:23:02.912Z,18.46
2022-08-29T00:25:31.584Z,18.55
2022-08-29T00:28:00.407Z,18.45
2022-08-29T00:30:28.554Z,18.37
2022-08-29T00:32:58.297Z,18.24
2022-08-29T00:35:29.252Z,18.25
2022-08-29T00:37:59.791Z,18.19
2022-08-29T00:40:31.790Z,18.09
2022-08-29T00:43:00.754Z,17.99
2022-08-29T00:45:29.420Z,17.96
2022-08-29T00:48:02.315Z,17.79
2022-08-29T00:50:37.749Z,17.65
2022-08-29T00:53:10.116Z,17.61
2022-08-29T00:55:40.166Z,17.41
2022-08-29T00:58:17.812Z,17.34
2022-08-29T01:00:47.779Z,17.29
2022-08-29T01:03:17.674Z,17.20
2022-08-29T01:05:46.229Z,17.17
2022-08-29T01:08:14.706Z,17.05
2022-08-29T01:11:00.915Z,17.02
2022-08-29T01:13:33.895Z,16.84
2022-08-29T01:16:03.533Z,16.69
2022-08-29T01:18:35.831Z,16.64
2022-08-29T01:21:14.323Z,16.68
2022-08-29T01:23:50.113Z,16.76
2022-08-29T01:26:20.082Z,16.61
2022-08-29T01:28:51.227Z,16.52
2022-08-29T01:31:42.206Z,16.45
2022-08-29T01:34:12.032Z,16.38
2022-08-29T01:36:47.183Z,16.35
2022-08-29T01:39:15.958Z,16.25
2022-08-29T01:41:45.374Z,16.25
2022-08-29T01:44:15.938Z,16.25
2022-08-29T01:46:43.875Z,16.22
2022-08-29T01:49:14.127Z,16.25
2022-08-29T01:51:43.038Z,16.25
2022-08-29T01:54:12.613Z,16.23
2022-08-29T01:56:45.175Z,16.26
2022-08-29T01:59:18.524Z,16.26
2022-08-29T02:01:51.015Z,16.24
2022-08-29T02:04:19.259Z,16.16
2022-08-29T02:06:47.911Z,16.23
2022-08-29T02:09:15.908Z,16.16
2022-08-29T02:11:46.852Z,16.10
2022-08-29T02:14:16.263Z,16.03
2022-08-29T02:16:48.885Z,16.02
2022-08-29T02:19:17.574Z,16.00
2022-08-29T02:21:46.145Z,15.89
2022-08-29T02:24:25.541Z,15.93
2022-08-29T02:26:55.684Z,15.88
2022-08-29T02:29:26.385Z,15.82
2022-08-29T02:32:07.459Z,15.73
2022-08-29T02:34:36.225Z,15.70
2022-08-29T02:37:06.010Z,15.64
2022-08-29T02:39:34.339Z,15.63
2022-08-29T02:42:02.967Z,15.57
2022-08-29T02:44:32.548Z,15.46
2022-08-29T02:47:00.915Z,15.41
2022-08-29T02:49:30.350Z,15.32
2022-08-29T02:51:58.887Z,15.34
2022-08-29T02:54:27.034Z,15.29
2022-08-29T02:56:55.421Z,15.25
2022-08-29T02:59:23.408Z,15.22
2022-08-29T03:01:54.006Z,15.13
2022-08-29T03:04:22.027Z,15.12
2022-08-29T03:06:50.742Z,15.16
2022-08-29T03:09:18.715Z,15.12
2022-08-29T03:11:47.055Z,15.07
2022-08-29T03:14:16.097Z,15.04
2022-08-29T03:16:44.526Z,14.97
2022-08-29T03:19:13.880Z,14.96
2022-08-29T03:21:42.569Z,14.99
2022-08-29T03:24:10.514Z,15.01
2022-08-29T03:26:38.781Z,14.93
2022-08-29T03:29:06.785Z,14.83
2022-08-29T03:31:35.976Z,14.73
2022-08-29T03:34:04.637Z,14.66
2022-08-29T03:36:34.412Z,14.66
2022-08-29T03:39:02.853Z,14.59
2022-08-29T03:41:31.921Z,14.56
2022-08-29T03:44:00.247Z,14.60
2022-08-29T03:46:29.318Z,14.61
2022-08-29T03:48:57.249Z,14.62
2022-08-29T03:51:28.683Z,14.56
2022-08-29T03:53:59.278Z,14.55
2022-08-29T03:56:27.845Z,14.51
2022-08-29T03:58:55.823Z,14.38
2022-08-29T04:01:26.908Z,14.36
2022-08-29T04:03:55.003Z,14.36
2022-08-29T04:06:23.980Z,14.35
2022-08-29T04:08:53.220Z,14.29
2022-08-29T04:11:25.157Z,14.40
2022-08-29T04:13:54.076Z,14.31
2022-08-29T04:16:24.994Z,14.27
2022-08-29T04:18:58.335Z,14.19
2022-08-29T04:21:27.344Z,14.11
2022-08-29T04:23:55.373Z,14.11
2022-08-29T04:26:36.999Z,14.00
2022-08-29T04:29:06.331Z,14.00
2022-08-29T04:31:34.362Z,14.04
2022-08-29T04:34:02.457Z,13.98
2022-08-29T04:36:31.044Z,14.01
2022-08-29T04:38:58.935Z,14.01
2022-08-29T04:41:28.663Z,14.12
2022-08-29T04:43:56.641Z,14.20
2022-08-29T04:46:25.057Z,14.32
2022-08-29T04:48:53.444Z,14.31
2022-08-29T04:51:22.406Z,14.37
2022-08-29T04:53:52.242Z,14.42
2022-08-29T04:56:22.171Z,14.46
2022-08-29T04:58:52.190Z,14.60
2022-08-29T05:01:23.409Z,14.71
2022-08-29T05:03:53.170Z,14.91
2022-08-29T05:06:23.148Z,14.89
2022-08-29T05:08:59.313Z,14.98
2022-08-29T05:11:30.172Z,14.99
2022-08-29T05:14:01.561Z,15.23
2022-08-29T05:16:30.992Z,15.41
2022-08-29T05:19:00.542Z,15.85
2022-08-29T05:21:35.576Z,16.10
2022-08-29T05:24:05.773Z,16.21
2022-08-29T05:26:37.251Z,16.41
2022-08-29T05:29:10.897Z,16.67
2022-08-29T05:31:41.142Z,16.80
2022-08-29T05:34:32.047Z,17.05
2022-08-29T05:36:57.960Z,18.06
2022-08-29T05:39:25.924Z,19.23
2022-08-29T05:41:56.401Z,19.98
2022-08-29T05:44:26.273Z,21.20
2022-08-29T05:46:56.669Z,22.27
2022-08-29T05:49:25.692Z,22.93
2022-08-29T05:51:54.435Z,23.81
2022-08-29T05:54:25.540Z,24.55
2022-08-29T05:56:58.237Z,25.23
2022-08-29T05:59:27.992Z,25.06
2022-08-29T06:01:55.864Z,26.09
2022-08-29T06:04:24.153Z,25.64
2022-08-29T06:06:52.094Z,26.15
2022-08-29T06:09:20.426Z,26.35
2022-08-29T06:11:50.839Z,25.89
2022-08-29T06:14:19.353Z,26.66
2022-08-29T06:16:48.652Z,27.63
2022-08-29T06:19:17.042Z,28.02
2022-08-29T06:21:45.011Z,28.14
2022-08-29T06:24:13.351Z,28.57
2022-08-29T06:26:41.366Z,30.66
2022-08-29T06:29:11.326Z,29.22
2022-08-29T06:31:40.336Z,29.09
2022-08-29T06:34:11.139Z,28.04
2022-08-29T06:36:39.823Z,30.24
2022-08-29T06:39:11.148Z,30.12
2022-08-29T06:41:41.287Z,30.35
2022-08-29T06:44:10.751Z,30.41
2022-08-29T06:46:41.381Z,32.62
2022-08-29T06:49:13.751Z,31.70
2022-08-29T06:51:44.596Z,32.74
2022-08-29T06:54:14.069Z,31.58
2022-08-29T06:56:42.399Z,31.98
2022-08-29T06:59:11.599Z,31.40
2022-08-29T07:01:41.537Z,32.32
2022-08-29T07:04:14.470Z,33.22
2022-08-29T07:06:43.362Z,33.97
2022-08-29T07:09:12.403Z,31.92
2022-08-29T07:11:42.024Z,32.92
2022-08-29T07:14:10.742Z,34.44
2022-08-29T07:16:39.228Z,34.88
2022-08-29T07:19:09.213Z,34.87
2022-08-29T07:21:39.221Z,36.47
2022-08-29T07:24:08.292Z,36.04
2022-08-29T07:26:38.937Z,34.83
2022-08-29T07:29:09.973Z,35.30
2022-08-29T07:31:39.050Z,34.34
2022-08-29T07:34:07.724Z,35.42
2022-08-29T07:36:38.592Z,36.16
2022-08-29T07:39:09.568Z,37.07
2022-08-29T07:41:38.901Z,37.62
2022-08-29T07:44:07.345Z,37.57
2022-08-29T07:46:35.256Z,37.19
2022-08-29T07:49:03.928Z,35.69
2022-08-29T07:51:32.177Z,35.49
2022-08-29T07:54:01.806Z,35.82
2022-08-29T07:56:38.006Z,37.70
2022-08-29T07:59:06.814Z,38.49
2022-08-29T08:01:35.682Z,39.88
2022-08-29T08:04:04.133Z,40.31
2022-08-29T08:06:32.302Z,38.17
2022-08-29T08:09:04.725Z,39.39
2022-08-29T08:11:33.057Z,37.43
2022-08-29T08:14:01.166Z,37.70
2022-08-29T08:16:29.957Z,36.67
2022-08-29T08:18:59.140Z,37.36
2022-08-29T08:21:27.978Z,37.08
2022-08-29T08:23:56.490Z,38.58
2022-08-29T08:26:26.564Z,37.91
2022-08-29T08:28:55.174Z,38.33
2022-08-29T08:31:23.557Z,38.97
2022-08-29T08:33:52.360Z,39.52
2022-08-29T08:36:23.116Z,38.89
2022-08-29T08:38:51.777Z,39.12
2022-08-29T08:41:42.095Z,39.24
2022-08-29T08:44:25.218Z,38.89
2022-08-29T08:46:56.121Z,38.46
2022-08-29T08:49:32.492Z,36.87
2022-08-29T08:52:06.643Z,37.14
2022-08-29T08:54:42.231Z,36.54
2022-08-29T08:57:14.225Z,39.60
2022-08-29T08:59:46.382Z,40.17
2022-08-29T09:02:35.441Z,37.68
2022-08-29T09:05:17.739Z,38.18
2022-08-29T09:07:55.071Z,40.21
2022-08-29T09:10:33.423Z,40.99
2022-08-29T09:13:19.126Z,40.86
2022-08-29T09:15:49.797Z,41.70
2022-08-29T09:18:28.644Z,38.71
2022-08-29T09:20:57.472Z,38.94
2022-08-29T09:23:31.475Z,40.04
2022-08-29T09:26:00.602Z,38.15
2022-08-29T09:28:30.152Z,39.26
2022-08-29T09:31:20.158Z,37.91
2022-08-29T09:33:51.502Z,36.07
2022-08-29T09:36:47.750Z,39.36
2022-08-29T09:39:22.243Z,39.59
2022-08-29T09:41:53.764Z,38.47
2022-08-29T09:44:27.748Z,41.18
2022-08-29T09:47:07.519Z,40.50
2022-08-29T09:49:37.337Z,37.82
2022-08-29T09:52:15.354Z,38.67
2022-08-29T09:54:44.276Z,39.11
2022-08-29T09:57:22.875Z,38.02
2022-08-29T10:00:11.690Z,38.05
2022-08-29T10:02:47.701Z,37.65
2022-08-29T10:05:41.522Z,39.21
2022-08-29T10:08:27.920Z,36.69
2022-08-29T10:10:59.600Z,38.93
2022-08-29T10:13:35.047Z,38.74
2022-08-29T10:16:15.037Z,40.77
2022-08-29T10:18:48.664Z,37.94
2022-08-29T10:21:26.578Z,38.23
2022-08-29T10:24:19.530Z,34.60
2022-08-29T10:26:57.577Z,35.57
2022-08-29T10:29:40.576Z,37.18
2022-08-29T10:32:18.866Z,39.70
2022-08-29T10:35:01.083Z,39.68
2022-08-29T10:37:38.125Z,36.48
2022-08-29T10:40:10.167Z,37.05
2022-08-29T10:42:47.043Z,39.09
2022-08-29T10:45:17.672Z,39.61
2022-08-29T10:47:54.535Z,39.70
2022-08-29T10:50:44.034Z,36.62
2022-08-29T10:53:20.338Z,34.43
2022-08-29T10:55:56.732Z,34.35
2022-08-29T10:58:40.831Z,35.83
2022-08-29T11:01:15.908Z,37.22
2022-08-29T11:03:52.981Z,37.24
2022-08-29T11:06:26.451Z,35.89
2022-08-29T11:09:01.452Z,35.91
2022-08-29T11:11:32.171Z,34.96
2022-08-29T11:14:10.080Z,34.56
2022-08-29T11:16:47.415Z,34.53
2022-08-29T11:19:25.223Z,35.65
2022-08-29T11:21:57.788Z,33.60
2022-08-29T11:24:32.892Z,31.21
2022-08-29T11:27:10.790Z,32.78
2022-08-29T11:29:46.834Z,31.95
2022-08-29T11:32:26.333Z,29.94
2022-08-29T11:35:08.269Z,29.31
2022-08-29T11:38:01.634Z,29.38
2022-08-29T11:40:47.662Z,29.97
2022-08-29T11:43:20.753Z,30.94
2022-08-29T11:45:58.741Z,32.02
2022-08-29T11:48:35.970Z,30.75
2022-08-29T11:51:30.391Z,30.74
2022-08-29T11:54:37.421Z,30.78
2022-08-29T11:57:53.721Z,29.14
2022-08-29T12:00:35.123Z,28.87
2022-08-29T12:03:07.302Z,28.81
2022-08-29T12:05:54.096Z,28.05
2022-08-29T12:08:37.753Z,28.07
2022-08-29T12:11:07.491Z,28.36
2022-08-29T12:14:04.896Z,28.63
2022-08-29T12:16:51.691Z,27.61
2022-08-29T12:19:50.662Z,26.98
2022-08-29T12:22:49.348Z,27.12
2022-08-29T12:25:45.341Z,28.09
2022-08-29T12:28:36.027Z,27.28
2022-08-29T12:31:27.581Z,27.51
2022-08-29T12:34:11.615Z,26.88
2022-08-29T12:36:55.955Z,26.58
2022-08-29T12:39:36.758Z,26.81
2022-08-29T12:42:23.156Z,27.41
2022-08-29T12:45:00.693Z,27.60
2022-08-29T12:47:33.859Z,27.99
2022-08-29T12:50:08.022Z,28.62
2022-08-29T12:52:39.430Z,27.65
2022-08-29T12:55:23.961Z,27.05
2022-08-29T12:57:59.129Z,26.77
2022-08-29T13:00:29.437Z,27.36
2022-08-29T13:03:01.262Z,26.98
2022-08-29T13:05:31.156Z,27.51
2022-08-29T13:08:03.091Z,27.61
2022-08-29T13:10:31.207Z,27.83
2022-08-29T13:13:09.260Z,27.68
2022-08-29T13:15:37.202Z,27.70
2022-08-29T13:18:06.409Z,28.49
2022-08-29T13:20:43.118Z,28.55
2022-08-29T13:23:17.440Z,28.46
2022-08-29T13:25:48.403Z,28.29
2022-08-29T13:28:22.971Z,27.96
2022-08-29T13:31:10.449Z,27.29
2022-08-29T13:33:40.259Z,27.03
2022-08-29T13:36:32.497Z,27.15
2022-08-29T13:39:26.565Z,27.29
2022-08-29T13:42:23.134Z,27.88
2022-08-29T13:45:06.114Z,27.45
2022-08-29T13:47:41.317Z,27.48
2022-08-29T13:50:13.164Z,27.47
2022-08-29T13:52:41.165Z,27.11
2022-08-29T13:55:11.357Z,27.05
2022-08-29T13:57:41.432Z,27.15
2022-08-29T14:00:14.105Z,27.61
2022-08-29T14:02:45.181Z,27.38
2022-08-29T14:05:15.163Z,27.16
2022-08-29T14:07:44.995Z,27.45
2022-08-29T14:10:15.595Z,27.24
2022-08-29T14:12:43.572Z,27.18
2022-08-29T14:15:18.056Z,27.50
2022-08-29T14:17:48.067Z,27.48
2022-08-29T14:20:19.220Z,27.01
2022-08-29T14:22:48.079Z,27.00
2022-08-29T14:25:17.871Z,27.46
2022-08-29T14:27:47.394Z,26.51
2022-08-29T14:30:20.403Z,26.84
2022-08-29T14:32:48.421Z,26.38
2022-08-29T14:35:26.680Z,26.53
2022-08-29T14:38:00.263Z,26.69
2022-08-29T14:40:29.402Z,26.94
2022-08-29T14:42:57.678Z,27.29
2022-08-29T14:45:27.922Z,27.55
2022-08-29T14:47:56.208Z,27.30
2022-08-29T14:50:25.368Z,27.13
2022-08-29T14:52:53.684Z,27.33
2022-08-29T14:55:22.924Z,27.36
2022-08-29T14:57:50.994Z,27.44
2022-08-29T15:00:23.427Z,26.79
2022-08-29T15:02:52.848Z,27.15
2022-08-29T15:05:21.821Z,27.24
2022-08-29T15:07:49.725Z,27.08
2022-08-29T15:10:21.816Z,27.02
2022-08-29T15:12:49.750Z,26.66
2022-08-29T15:15:18.605Z,26.54
2022-08-29T15:17:47.026Z,26.79
2022-08-29T15:20:36.152Z,27.04
2022-08-29T15:23:04.458Z,27.24
2022-08-29T15:25:33.064Z,27.34
2022-08-29T15:28:00.945Z,27.20
2022-08-29T15:30:29.259Z,27.02
2022-08-29T15:32:57.300Z,26.84
2022-08-29T15:35:27.286Z,26.48
2022-08-29T15:37:55.434Z,26.45
2022-08-29T15:40:23.823Z,26.69
2022-08-29T15:42:52.102Z,26.38
2022-08-29T15:45:22.474Z,26.07
2022-08-29T15:47:50.914Z,26.22
2022-08-29T15:50:22.598Z,26.02
2022-08-29T15:52:52.264Z,26.19
2022-08-29T15:55:20.798Z,26.00
2022-08-29T15:57:51.763Z,26.19
2022-08-29T16:00:30.445Z,26.02
2022-08-29T16:03:00.176Z,26.04
2022-08-29T16:05:28.580Z,25.92
2022-08-29T16:07:58.109Z,25.97
2022-08-29T16:10:26.464Z,26.09
2022-08-29T16:12:54.820Z,25.90
2022-08-29T16:15:23.165Z,26.01
2022-08-29T16:17:51.370Z,25.90
2022-08-29T16:20:19.514Z,26.08
2022-08-29T16:22:47.462Z,26.17
2022-08-29T16:25:17.959Z,26.03
2022-08-29T16:27:46.096Z,26.05
2022-08-29T16:30:14.408Z,25.89
2022-08-29T16:32:42.752Z,25.75
2022-08-29T16:35:11.973Z,25.95
2022-08-29T16:37:40.707Z,25.96
2022-08-29T16:40:10.199Z,25.95
2022-08-29T16:42:40.001Z,25.67
2022-08-29T16:45:09.823Z,25.43
2022-08-29T16:47:38.613Z,25.14
2022-08-29T16:50:08.538Z,25.08
2022-08-29T16:52:36.892Z,25.16
2022-08-29T16:55:06.510Z,25.18
2022-08-29T16:57:35.342Z,25.07
2022-08-29T17:00:07.285Z,25.01
2022-08-29T17:02:35.620Z,24.96
2022-08-29T17:05:04.751Z,24.88
2022-08-29T17:07:34.641Z,24.80
2022-08-29T17:10:02.924Z,24.77
2022-08-29T17:12:30.502Z,24.77
2022-08-29T17:14:57.441Z,24.68
2022-08-29T17:17:27.281Z,24.60
2022-08-29T17:19:55.145Z,24.55
2022-08-29T17:22:23.554Z,24.44
2022-08-29T17:24:51.476Z,24.39
2022-08-29T17:27:21.903Z,24.19
2022-08-29T17:29:50.351Z,24.20
2022-08-29T17:32:19.332Z,24.14
2022-08-29T17:34:49.110Z,24.14
2022-08-29T17:37:17.668Z,24.12
2022-08-29T17:39:45.605Z,24.06
2022-08-29T17:42:14.399Z,23.80
2022-08-29T17:44:42.311Z,23.67
2022-08-29T17:47:11.414Z,23.63
2022-08-29T17:49:39.364Z,23.48
2022-08-29T17:52:08.752Z,23.34
2022-08-29T17:54:36.774Z,23.22
2022-08-29T17:57:05.713Z,23.20
2022-08-29T17:59:36.796Z,23.17
2022-08-29T18:02:05.591Z,23.03
2022-08-29T18:04:33.672Z,22.89
2022-08-29T18:07:01.975Z,22.78
2022-08-29T18:09:31.559Z,22.65
2022-08-29T18:11:59.873Z,22.54
2022-08-29T18:14:28.487Z,22.44
2022-08-29T18:16:57.772Z,22.34
2022-08-29T18:19:27.435Z,22.20
2022-08-29T18:21:55.699Z,22.00
2022-08-29T18:24:24.012Z,21.84
2022-08-29T18:26:53.856Z,21.74
2022-08-29T18:29:21.942Z,21.63
2022-08-29T18:31:50.668Z,21.48
2022-08-29T18:34:19.465Z,21.40
2022-08-29T18:36:48.967Z,21.36
2022-08-29T18:39:18.937Z,21.43
2022-08-29T18:41:47.924Z,21.30
2022-08-29T18:44:17.255Z,21.31
2022-08-29T18:46:48.380Z,21.25
2022-08-29T18:49:17.209Z,21.16
2022-08-29T18:51:45.104Z,21.11
2022-08-29T18:54:17.450Z,21.09
2022-08-29T18:56:47.288Z,21.07
2022-08-29T18:59:15.377Z,21.11
2022-08-29T19:01:44.771Z,21.05
2022-08-29T19:04:12.876Z,20.95
2022-08-29T19:06:40.904Z,20.92
2022-08-29T19:09:08.851Z,20.98
2022-08-29T19:11:37.149Z,20.91
2022-08-29T19:14:05.237Z,20.83
2022-08-29T19:16:33.555Z,20.93
2022-08-29T19:19:03.038Z,21.03
2022-08-29T19:21:30.007Z,20.86
2022-08-29T19:23:58.277Z,20.73
2022-08-29T19:26:29.629Z,20.94
2022-08-29T19:28:59.803Z,20.74
2022-08-29T19:31:29.235Z,20.48
2022-08-29T19:33:58.692Z,20.35
2022-08-29T19:36:28.438Z,20.32
2022-08-29T19:38:56.483Z,20.26
2022-08-29T19:44:13.600Z,20.25
2022-08-29T19:46:48.656Z,20.15
2022-08-29T19:49:17.662Z,20.13
2022-08-29T19:51:47.079Z,20.16
2022-08-29T19:54:16.717Z,20.26
2022-08-29T19:56:46.637Z,20.13
2022-08-29T19:59:15.527Z,20.05
2022-08-29T20:01:45.005Z,19.95
2022-08-29T20:04:13.846Z,19.90
2022-08-29T20:06:42.048Z,20.02
2022-08-29T20:09:13.957Z,20.06
2022-08-29T20:11:43.928Z,19.98
2022-08-29T20:14:14.055Z,19.88
2022-08-29T20:16:42.904Z,19.96
2022-08-29T20:19:12.266Z,19.66
2022-08-29T20:21:41.876Z,19.40
2022-08-29T20:24:15.769Z,19.23
2022-08-29T20:26:47.964Z,18.96
2022-08-29T20:29:17.376Z,18.89
2022-08-29T20:31:45.797Z,18.76
2022-08-29T20:34:13.873Z,18.75
2022-08-29T20:37:00.598Z,18.77
2022-08-29T20:39:28.972Z,18.63
2022-08-29T20:42:00.298Z,18.48
2022-08-29T20:44:33.984Z,18.32
2022-08-29T20:47:02.954Z,18.15
2022-08-29T20:49:31.317Z,17.97
2022-08-29T20:51:59.340Z,18.00
2022-08-29T20:54:27.848Z,18.02
2022-08-29T20:56:56.581Z,17.95
2022-08-29T20:59:27.010Z,17.82
2022-08-29T21:01:56.375Z,17.77
2022-08-29T21:04:42.456Z,17.70
2022-08-29T21:07:12.219Z,17.65
2022-08-29T21:09:43.700Z,17.65
2022-08-29T21:12:13.266Z,17.54
2022-08-29T21:14:43.034Z,17.51
2022-08-29T21:17:12.153Z,17.28
2022-08-29T21:19:41.840Z,17.23
2022-08-29T21:22:11.657Z,17.22
2022-08-29T21:24:40.604Z,17.09
2022-08-29T21:27:08.509Z,17.01
2022-08-29T21:29:36.891Z,17.10
2022-08-29T21:32:06.468Z,16.97
2022-08-29T21:34:34.440Z,16.95
2022-08-29T21:37:02.318Z,16.93
2022-08-29T21:39:30.541Z,17.11
2022-08-29T21:42:00.974Z,17.12
2022-08-29T21:44:30.992Z,17.10
2022-08-29T21:46:59.081Z,16.92
2022-08-29T21:49:30.705Z,16.84
2022-08-29T21:51:58.595Z,16.69
2022-08-29T21:54:27.121Z,16.70
2022-08-29T21:56:54.991Z,16.68
2022-08-29T21:59:23.367Z,16.62
2022-08-29T22:01:54.485Z,16.58
2022-08-29T22:04:28.896Z,16.43
2022-08-29T22:06:59.871Z,16.43
2022-08-29T22:09:29.231Z,16.47
2022-08-29T22:11:57.308Z,16.50
2022-08-29T22:14:45.802Z,16.44
2022-08-29T22:17:13.497Z,16.41
2022-08-29T22:19:42.242Z,16.37
2022-08-29T22:22:11.800Z,16.43
2022-08-29T22:24:40.165Z,16.34
2022-08-29T22:27:08.315Z,16.11
2022-08-29T22:29:37.782Z,16.05
2022-08-29T22:32:06.123Z,15.91
2022-08-29T22:34:34.475Z,15.95
2022-08-29T22:37:02.413Z,15.91
2022-08-29T22:39:32.182Z,15.91
2022-08-29T22:42:00.123Z,15.94
2022-08-29T22:45:02.734Z,15.97
2022-08-29T22:47:18.003Z,15.94
2022-08-29T22:49:46.646Z,15.87
2022-08-29T22:52:14.666Z,15.89
2022-08-29T22:54:44.812Z,15.85
2022-08-29T22:57:14.816Z,15.92
2022-08-29T22:59:43.696Z,15.81
2022-08-29T23:02:13.405Z,15.83
2022-08-29T23:04:41.746Z,15.69
2022-08-29T23:07:11.763Z,15.75
2022-08-29T23:09:41.172Z,15.64
2022-08-29T23:12:11.809Z,15.68
2022-08-29T23:14:41.473Z,15.61
2022-08-29T23:17:10.448Z,15.56
2022-08-29T23:19:41.182Z,15.50
2022-08-29T23:22:09.979Z,15.38
2022-08-29T23:24:39.499Z,15.36
2022-08-29T23:27:10.852Z,15.31
2022-08-29T23:29:42.049Z,15.25
2022-08-29T23:32:10.158Z,15.27
2022-08-29T23:34:38.482Z,15.14
2022-08-29T23:37:06.539Z,15.11
2022-08-29T23:39:34.908Z,15.18
2022-08-29T23:42:03.501Z,15.10
2022-08-29T23:44:33.190Z,15.03
2022-08-29T23:47:01.092Z,15.03
2022-08-29T23:49:29.440Z,15.08
2022-08-29T23:51:57.404Z,15.03
2022-08-29T23:54:27.860Z,14.94
2022-08-29T23:56:55.800Z,14.92
2022-08-29T23:59:41.402Z,14.88
